Terminal Aerodrome Forecast
Issued by NWS

Home | Current Version | Previous Version | Text Only | Print | Product List | Glossary On
Versions: 1 2 3 4 5 6 7 8 9 10 11 12 13 14 15 16 17 18
000
FTAK31 PAJN 060700 AAA
TAFAGY
TAF AMD
PAGY 060720Z 0607/0706 21012G18KT P6SM SCT012 BKN050 OVC070
      TEMPO 0607/0610 BKN012
     FM062100 21015G25KT P6SM VCSH BKN050 OVC070
      AMD LTD TO CLD VIS AND WIND=

USA.gov is the U.S. government's official web portal to all federal, state and local government web resources and services.